Latest Weather Observations for Cunderdin Airport

IDW60801

Issued at 5:33 pm WST Monday 29 May 2017 (issued every 30 minutes, with the page automatically refreshed every 10 minutes)

About weather observations | Map of weather stations | Latest weather observations for WA | Other Formats
Station Details ID: 010286 Name: CUNDERDIN AIRFIELD Lat: -31.62 Lon: 117.22 Height: 216.7 m
Data from the previous 72 hours. | See also: Recent months at Cunderdin Airport
Date/Time
WST
Temp
°C
App
Temp
°C
Dew
Point
°C
Rel
Hum
%
Delta-T
°C
Wind Press
QNH
hPa
Press
MSL
hPa
Rain since
9am
mm
Dir  Spd
km/h
Gust
km/h
Spd
kts
Gust
kts
29/05:30pm 16.2 13.0 4.9 47 5.4 ESE 11 15 6 8 1023.9 1023.7 0.0
29/05:00pm 17.6 14.4 4.9 43 6.1 ESE 11 13 6 7 1023.7 1023.5 0.0
29/04:30pm 18.8 14.8 4.9 40 6.8 E 15 20 8 11 1023.6 1023.4 0.0
29/04:00pm 19.4 15.3 4.4 37 7.2 E 15 20 8 11 1023.8 1023.6 0.0
29/03:30pm 19.6 15.8 3.7 35 7.6 E 13 22 7 12 1023.9 1023.7 0.0
29/03:00pm 20.2 16.5 4.3 35 7.7 E 13 20 7 11 1023.9 1023.7 0.0
29/02:30pm 19.8 16.1 4.3 36 7.5 E 13 20 7 11 1023.7 1023.5 0.0
29/02:00pm 19.8 16.6 5.1 38 7.2 ESE 11 17 6 9 1023.8 1023.6 0.0
29/01:30pm 19.3 16.1 5.0 39 7.0 E 11 17 6 9 1024.2 1023.9 0.0
29/01:00pm 19.5 16.9 5.9 41 6.8 E 9 20 5 11 1024.6 1024.3 0.0
29/12:30pm 18.6 15.2 5.8 43 6.3 ENE 13 17 7 9 1025.0 1024.8 0.0
29/12:00pm 17.5 14.5 5.8 46 5.7 E 11 17 6 9 1025.3 1025.1 0.0
29/11:30am 16.8 13.5 6.3 50 5.2 NE 13 19 7 10 1025.8 1025.6 0.0
29/11:00am 15.1 11.8 6.4 56 4.2 ENE 13 19 7 10 1026.5 1026.3 0.0
29/10:30am 14.3 10.7 6.6 60 3.8 ENE 15 22 8 12 1027.0 1026.8 0.0
29/10:00am 12.8 8.7 6.4 65 3.1 E 17 20 9 11 1027.3 1027.1 0.0
29/09:30am 11.2 7.5 6.1 71 2.4 E 15 20 8 11 1027.1 1026.9 0.0
29/09:00am 9.7 6.3 5.7 76 1.8 E 13 19 7 10 1027.1 1026.9 0.0
29/08:30am 8.5 5.9 6.0 84 1.2 E 9 13 5 7 1026.7 1026.5 0.0
29/08:00am 7.4 4.8 5.9 90 0.7 ESE 9 13 5 7 1026.5 1026.3 0.0
29/07:30am 4.3 1.6 3.6 95 0.3 ESE 7 11 4 6 1026.3 1026.1 0.0
29/07:00am 3.3 0.6 2.6 95 0.3 ESE 6 7 3 4 1025.9 1025.7 0.0
29/06:30am 3.1 0.4 2.4 95 0.3 ENE 6 7 3 4 1025.4 1025.2 0.0
29/06:00am 2.6 -0.4 1.7 94 0.4 ENE 7 7 4 4 1025.2 1025.0 0.0
29/05:30am 2.8 0.0 1.9 94 0.4 ENE 6 7 3 4 1025.0 1024.8 0.0
29/05:00am 1.4 -2.2 0.4 93 0.4 E 9 11 5 6 1025.0 1024.8 0.0
29/04:30am 2.8 1.1 1.6 92 0.5 CALM 0 0 0 0 1025.4 1025.2 0.0
29/04:00am 3.0 0.5 1.8 92 0.5 E 4 6 2 3 1025.4 1025.2 0.0
29/03:30am 4.2 1.7 3.5 95 0.3 E 6 6 3 3 1025.5 1025.3 0.0
29/03:00am 2.0 -1.6 0.7 91 0.5 ENE 9 11 5 6 1025.5 1025.3 0.0
29/02:30am 1.9 -1.1 0.7 92 0.5 ENE 6 7 3 4 1025.6 1025.4 0.0
29/02:00am 2.6 0.4 1.0 89 0.6 ESE 2 7 1 4 1025.5 1025.3 0.0
29/01:30am 3.8 1.1 2.6 92 0.5 SE 6 7 3 4 1025.4 1025.2 0.0
29/01:00am 3.6 0.8 2.3 91 0.5 NE 6 7 3 4 1025.4 1025.2 0.0
29/12:30am 3.1 -0.3 1.6 90 0.6 ENE 9 9 5 5 1025.5 1025.3 0.0
29/12:00am 4.9 3.1 3.2 89 0.7 ESE 2 9 1 5 1025.7 1025.5 0.0
 
Date/Time
WST
Temp
°C
App
Temp
°C
Dew
Point
°C
Rel
Hum
%
Delta-T
°C
Wind Press
QNH
hPa
Press
MSL
hPa
Rain since
9am
mm
Dir  Spd
km/h
Gust
km/h
Spd
kts
Gust
kts
28/11:30pm 4.7 1.5 2.9 88 0.7 ENE 9 11 5 6 1025.8 1025.6 0.0
28/11:00pm 6.5 3.5 4.3 86 1.0 ENE 9 9 5 5 1025.9 1025.7 0.0
28/10:30pm 3.8 0.4 2.0 88 0.7 E 9 11 5 6 1026.3 1026.1 0.0
28/10:00pm 4.4 1.6 1.9 84 1.0 ENE 6 7 3 4 1026.6 1026.4 0.0
28/09:30pm 5.3 2.6 2.5 82 1.2 ESE 6 7 3 4 1026.4 1026.2 0.0
28/09:00pm 7.6 5.1 3.8 77 1.6 E 6 7 3 4 1026.3 1026.1 0.0
28/08:30pm 10.8 7.7 5.6 70 2.4 SE 11 15 6 8 1026.1 1025.9 0.0
28/08:00pm 11.1 7.6 5.6 69 2.6 SE 13 17 7 9 1025.9 1025.7 0.0
28/07:30pm 11.7 8.2 5.6 66 2.9 SE 13 17 7 9 1025.7 1025.5 0.0
28/07:00pm 11.7 9.0 5.6 66 2.8 SE 9 13 5 7 1025.6 1025.4 0.0
28/06:30pm 12.4 9.3 5.6 63 3.2 SE 11 13 6 7 1025.2 1025.0 0.0
28/06:00pm 13.3 10.2 5.7 60 3.6 SE 11 13 6 7 1025.1 1024.9 0.0
28/05:30pm 14.0 11.3 5.6 57 4.0 SE 9 11 5 6 1025.1 1024.9 0.0
28/05:00pm 15.6 12.2 5.8 52 4.7 SE 13 17 7 9 1025.0 1024.8 0.0
28/04:30pm 16.4 13.0 6.0 50 5.1 SE 13 17 7 9 1024.9 1024.6 0.0
28/04:00pm 16.7 13.3 5.9 49 5.3 SE 13 17 7 9 1024.7 1024.4 0.0
28/03:30pm 17.0 13.2 5.9 48 5.5 SE 15 20 8 11 1024.8 1024.5 0.0
28/03:00pm 17.5 13.8 6.1 47 5.6 E 15 24 8 13 1024.7 1024.4 0.0
28/02:30pm 17.3 14.0 6.2 48 5.5 ESE 13 24 7 13 1024.9 1024.6 0.0
28/02:00pm 17.2 13.1 6.4 49 5.3 E 17 24 9 13 1025.0 1024.8 0.0
28/01:30pm 17.1 14.1 6.0 48 5.5 E 11 19 6 10 1025.2 1025.0 0.0
28/01:00pm 16.4 13.1 6.2 51 5.0 E 13 20 7 11 1025.7 1025.5 0.0
28/12:30pm 17.3 14.5 7.1 51 5.1 ESE 11 24 6 13 1026.0 1025.8 0.0
28/12:00pm 16.1 12.9 6.8 54 4.6 ESE 13 22 7 12 1026.5 1026.3 0.0
28/11:30am 16.3 12.8 7.3 55 4.5 E 15 22 8 12 1026.9 1026.7 0.0
28/11:00am 15.5 11.6 7.0 57 4.2 ENE 17 24 9 13 1027.4 1027.2 0.0
28/10:30am 15.1 10.8 7.2 59 3.9 E 19 26 10 14 1027.7 1027.5 0.0
28/10:00am 13.7 9.9 7.7 67 3.0 E 17 22 9 12 1028.1 1027.9 0.0
28/09:30am 12.4 9.0 7.7 73 2.3 E 15 20 8 11 1028.2 1028.0 0.0
28/09:00am 10.5 7.7 7.0 79 1.7 E 11 17 6 9 1028.3 1028.1 0.0
28/08:30am 9.0 6.6 6.8 86 1.0 E 9 11 5 6 1028.0 1027.8 0.0
28/08:00am 6.3 4.1 5.4 94 0.4 NE 6 7 3 4 1027.9 1027.7 0.0
28/07:30am 3.4 0.1 2.7 95 0.3 E 9 11 5 6 1027.6 1027.4 0.0
28/07:00am 1.1 -2.2 0.1 93 0.4 ENE 7 9 4 5 1027.6 1027.4 0.0
28/06:30am 1.6 -1.5 0.4 92 0.4 E 6 6 3 3 1027.3 1027.1 0.0
28/06:00am 2.8 0.7 1.6 92 0.5 NE 2 7 1 4 1026.9 1026.7 0.0
28/05:30am 2.7 0.9 1.5 92 0.5 CALM 0 0 0 0 1026.8 1026.6 0.0
28/05:00am 3.3 0.6 2.4 94 0.4 ENE 6 7 3 4 1026.6 1026.4 0.0
28/04:30am 1.9 -1.3 0.6 91 0.5 NNE 7 9 4 5 1026.4 1026.2 0.0
28/04:00am 3.2 0.4 1.9 91 0.5 ENE 6 7 3 4 1026.4 1026.2 0.0
28/03:30am 3.1 0.1 1.9 92 0.5 E 7 7 4 4 1026.5 1026.3 0.0
28/03:00am 2.3 -0.7 0.8 90 0.6 E 6 7 3 4 1026.6 1026.4 0.0
28/02:30am 2.2 -1.0 0.9 91 0.5 NE 7 9 4 5 1026.6 1026.4 0.0
28/02:00am 2.1 -0.9 0.5 89 0.6 NE 6 7 3 4 1026.5 1026.3 0.0
28/01:30am 3.2 0.3 1.4 88 0.7 E 6 7 3 4 1026.4 1026.2 0.0
28/01:00am 4.6 1.8 3.1 90 0.6 ESE 7 11 4 6 1026.4 1026.2 0.0
28/12:38am 3.3 -0.5 1.8 90 0.6 ENE 11 13 6 7 1026.4 1026.2 0.0
28/12:30am 2.4 -1.6 0.5 87 0.7 ENE 11 13 6 7 1026.5 1026.3 0.0
28/12:19am 3.0 -0.5 1.1 87 0.7 E 9 13 5 7 1026.4 1026.2 0.0
28/12:00am 3.1 -0.1 1.0 86 0.8 ESE 7 9 4 5 1026.4 1026.2 0.0
 
Date/Time
WST
Temp
°C
App
Temp
°C
Dew
Point
°C
Rel
Hum
%
Delta-T
°C
Wind Press
QNH
hPa
Press
MSL
hPa
Rain since
9am
mm
Dir  Spd
km/h
Gust
km/h
Spd
kts
Gust
kts
27/11:30pm 4.9 1.6 2.3 83 1.1 E 9 11 5 6 1026.5 1026.3 0.0
27/11:00pm 7.5 4.3 3.2 74 1.8 ESE 9 11 5 6 1026.6 1026.4 0.0
27/10:30pm 8.6 6.0 4.0 73 2.0 ESE 7 11 4 6 1026.5 1026.3 0.0
27/10:00pm 9.9 7.0 4.7 70 2.3 SE 9 13 5 7 1026.6 1026.4 0.0
27/09:30pm 8.9 6.2 3.7 70 2.3 ESE 7 11 4 6 1026.5 1026.3 0.0
27/09:00pm 10.3 7.3 4.2 66 2.7 SE 9 13 5 7 1026.4 1026.2 0.0
27/08:30pm 10.2 7.2 4.1 66 2.7 SSE 9 11 5 6 1026.2 1026.0 0.0
27/08:00pm 10.7 7.8 4.4 65 2.8 SE 9 11 5 6 1026.1 1025.9 0.0
27/07:30pm 11.4 8.5 4.6 63 3.1 SE 9 11 5 6 1026.1 1025.9 0.0
27/07:00pm 11.8 8.5 4.5 61 3.3 SE 11 15 6 8 1025.8 1025.6 0.0
27/06:30pm 12.7 9.3 4.2 56 3.9 SE 11 15 6 8 1025.4 1025.2 0.0
27/06:00pm 12.8 10.2 4.0 55 4.0 SE 7 9 4 5 1025.1 1024.9 0.0
27/05:30pm 14.2 11.2 4.2 51 4.6 ESE 9 11 5 6 1024.9 1024.6 0.0
27/05:00pm 15.4 12.0 4.2 47 5.2 ESE 11 17 6 9 1024.8 1024.5 0.0
27/04:30pm 16.1 12.4 4.2 45 5.6 SE 13 19 7 10 1024.9 1024.6 0.0
27/04:00pm 16.5 11.7 4.5 45 5.7 SE 19 24 10 13 1024.8 1024.5 0.0
27/03:30pm 16.8 13.1 4.5 44 5.9 SE 13 19 7 10 1024.6 1024.3 0.0
27/03:00pm 17.0 13.4 5.0 45 5.8 SE 13 28 7 15 1024.5 1024.2 0.0
27/02:30pm 16.7 12.2 4.4 44 5.9 SSE 17 24 9 13 1024.5 1024.2 0.0
27/02:00pm 16.6 12.5 4.6 45 5.7 SE 15 24 8 13 1024.6 1024.3 0.0
27/01:30pm 16.3 12.8 5.6 49 5.2 SSE 13 22 7 12 1024.8 1024.5 0.0
27/01:00pm 16.8 14.4 6.9 52 4.9 ESE 9 19 5 10 1025.0 1024.8 0.0
27/12:30pm 16.2 12.9 6.6 53 4.8 ESE 13 19 7 10 1025.3 1025.1 0.0
27/12:00pm 15.8 12.5 6.3 53 4.6 ESE 13 20 7 11 1025.7 1025.5 0.0
27/11:30am 14.3 11.4 6.4 59 3.8 ESE 11 17 6 9 1026.1 1025.9 0.0
27/11:00am 14.7 11.5 7.0 60 3.8 SE 13 20 7 11 1026.4 1026.2 0.0
27/10:30am 14.9 11.5 7.5 61 3.7 ESE 15 20 8 11 1026.4 1026.2 0.0
27/10:00am 13.7 9.9 7.5 66 3.1 E 17 24 9 13 1026.5 1026.3 0.0
27/09:30am 13.5 11.0 8.4 71 2.6 E 11 19 6 10 1026.5 1026.3 0.0
27/09:00am 12.4 9.6 8.5 77 1.9 E 13 17 7 9 1026.2 1026.0 0.0
27/08:30am 11.5 9.1 8.7 83 1.4 E 11 19 6 10 1026.0 1025.8 0.0
27/08:00am 10.2 7.7 8.1 87 1.0 E 11 15 6 8 1025.8 1025.6 0.0
27/07:30am 8.9 7.1 7.8 93 0.5 E 7 9 4 5 1025.5 1025.3 0.0
27/07:00am 8.5 6.5 7.3 92 0.6 ENE 7 9 4 5 1025.2 1025.0 0.0
27/06:49am 8.8 6.9 7.4 91 0.7 E 7 11 4 6 1025.2 1025.0 0.0
27/06:30am 9.1 6.9 7.7 91 0.7 ESE 9 13 5 7 1025.0 1024.8 0.0
27/06:09am 9.0 6.7 7.6 91 0.7 E 9 11 5 6 1024.8 1024.5 0.0
27/06:00am 9.0 6.7 7.6 91 0.7 ENE 9 11 5 6 1024.7 1024.4 0.0
27/05:30am 9.2 6.9 7.6 90 0.8 SE 9 15 5 8 1024.3 1024.0 0.0
27/05:00am 10.1 7.6 8.0 87 1.0 ESE 11 17 6 9 1023.9 1023.7 0.0
27/04:30am 10.3 7.0 8.2 87 1.0 ESE 15 24 8 13 1023.7 1023.5 0.0
27/04:00am 10.0 7.5 8.3 89 0.8 ESE 11 20 6 11 1023.8 1023.6 0.0
27/03:30am 9.6 6.8 8.4 92 0.6 SE 13 20 7 11 1023.7 1023.5 0.0
27/03:15am 9.1 6.7 8.5 96 0.3 SE 11 17 6 9 1023.6 1023.4 0.0
27/03:00am 3.9 0.9 2.3 89 0.6 E 7 9 4 5 1023.6 1023.4 0.0
27/02:30am 4.2 1.5 2.9 91 0.5 ESE 6 9 3 5 1023.5 1023.3 0.0
27/02:00am 3.7 1.7 2.2 90 0.6 NNW 2 6 1 3 1023.4 1023.2 0.0
27/01:30am 3.6 1.9 1.6 87 0.8 CALM 0 0 0 0 1023.4 1023.2 0.0
27/01:00am 4.8 3.2 2.7 86 0.9 CALM 0 0 0 0 1023.4 1023.2 0.0
27/12:30am 4.1 2.2 2.6 90 0.6 ENE 2 9 1 5 1023.4 1023.2 0.0
27/12:00am 5.0 3.1 2.9 86 0.9 ENE 2 9 1 5 1023.1 1022.9 0.0
 
Date/Time
WST
Temp
°C
App
Temp
°C
Dew
Point
°C
Rel
Hum
%
Delta-T
°C
Wind Press
QNH
hPa
Press
MSL
hPa
Rain since
9am
mm
Dir  Spd
km/h
Gust
km/h
Spd
kts
Gust
kts
26/11:30pm 4.9 1.7 2.9 87 0.8 N 9 11 5 6 1023.1 1022.9 0.0
26/11:00pm 6.4 3.7 3.9 84 1.1 NNE 7 13 4 7 1023.2 1023.0 0.0
26/10:30pm 6.7 4.5 3.5 80 1.4 SSE 4 6 2 3 1023.1 1022.9 0.0
26/10:00pm 7.3 5.3 4.3 81 1.3 E 4 7 2 4 1023.1 1022.9 0.0
26/09:30pm 9.1 6.9 5.5 78 1.7 SE 6 7 3 4 1023.0 1022.8 0.0
26/09:00pm 8.9 7.6 4.3 73 2.0 CALM 0 6 0 3 1022.8 1022.6 0.0
26/08:30pm 8.8 7.1 4.2 73 2.0 E 2 9 1 5 1022.6 1022.4 0.0
26/08:00pm 12.8 9.7 5.7 62 3.4 SSE 11 15 6 8 1022.2 1022.0 0.0
26/07:30pm 12.7 10.0 5.8 63 3.3 SE 9 11 5 6 1022.0 1021.8 0.0
26/07:00pm 13.1 10.9 6.0 62 3.4 SE 7 9 4 5 1021.8 1021.6 0.0
26/06:30pm 13.5 11.2 5.9 60 3.6 SE 7 9 4 5 1021.5 1021.3 0.0
26/06:00pm 13.6 11.0 6.0 60 3.6 S 9 11 5 6 1021.0 1020.8 0.0

Other Formats:

Comma delimited format used in spreadsheet applications
http://www.bom.gov.au/fwo/IDW60801/IDW60801.95625.axf

JavaScript Object Notation format (JSON) in row-major order
http://www.bom.gov.au/fwo/IDW60801/IDW60801.95625.json